Ironton, Texas
Current Conditions -  °F | °C
As of 12:15 PM on Monday 26 Jan 2015 (Local Time) from KPSN Reporting Station
Clear Clear  
Wind Chill: 60°   Ceiling: Unl
Heat Index: 60°   Visibility: 10mi
Dew Point: 33°   Wind: 0mph
Humidity: 36%   Direction: NA
Pressure: 30.23"   Gusts: NA
Location:  31.9649°N, 95.3036°W
Report Text: KPSN 261815Z AUTO 00000KT 10SM CLR 15/00 A3023 RMK AO2 T01570005
Loading
Personal Weather Stations






























Interactive Weather Map New forecast layout! Learn more

10-Day Weather Forecast

Advertisements
Track Severe Weather on mobile